createdAt,value
2023-09-11T00:00:54.434Z,100336.06
2023-09-11T00:03:22.027Z,100336.06
2023-09-11T00:06:04.261Z,100343.31
2023-09-11T00:08:32.145Z,100337.72
2023-09-11T00:11:00.762Z,100333.75
2023-09-11T00:13:29.852Z,100333.75
2023-09-11T00:15:56.982Z,100336.19
2023-09-11T00:18:25.328Z,100332.59
2023-09-11T00:20:52.923Z,100339.41
2023-09-11T00:23:19.973Z,100326.59
2023-09-11T00:25:47.046Z,100329.81
2023-09-11T00:28:14.199Z,100327.78
2023-09-11T00:30:41.132Z,100329.41
2023-09-11T00:33:08.059Z,100326.59
2023-09-11T00:35:35.384Z,100333.81
2023-09-11T00:38:02.389Z,100341.00
2023-09-11T00:40:30.006Z,100327.41
2023-09-11T00:42:57.257Z,100325.00
2023-09-11T00:45:27.375Z,100330.59
2023-09-11T00:47:55.616Z,100323.41
2023-09-11T00:50:23.974Z,100322.63
2023-09-11T00:52:51.702Z,100325.84
2023-09-11T00:55:20.469Z,100332.25
2023-09-11T00:57:47.504Z,100334.66
2023-09-11T01:00:15.273Z,100324.28
2023-09-11T01:02:42.720Z,100335.09
2023-09-11T01:05:12.830Z,100336.69
2023-09-11T01:07:40.268Z,100333.94
2023-09-11T01:10:08.133Z,100335.13
2023-09-11T01:12:39.337Z,100326.69
2023-09-11T01:15:08.182Z,100318.72
2023-09-11T01:17:41.178Z,100325.13
2023-09-11T01:20:27.661Z,100337.16
2023-09-11T01:23:02.231Z,100335.56
2023-09-11T01:25:53.248Z,100336.34
2023-09-11T01:28:38.648Z,100333.97
2023-09-11T01:31:06.478Z,100332.38
2023-09-11T01:33:33.888Z,100331.97
2023-09-11T01:36:00.829Z,100329.19
2023-09-11T01:38:28.830Z,100322.00
2023-09-11T01:41:01.223Z,100341.19
2023-09-11T01:43:33.261Z,100331.97
2023-09-11T01:46:04.311Z,100326.75
2023-09-11T01:48:33.347Z,100330.75
2023-09-11T01:51:01.198Z,100336.34
2023-09-11T01:53:28.387Z,100336.38
2023-09-11T01:55:56.920Z,100340.38
2023-09-11T01:58:24.386Z,100346.84
2023-09-11T02:00:56.037Z,100346.84
2023-09-11T02:03:23.091Z,100342.06
2023-09-11T02:05:50.831Z,100351.69
2023-09-11T02:08:17.827Z,100346.50
2023-09-11T02:10:44.750Z,100342.13
2023-09-11T02:13:11.739Z,100345.72
2023-09-11T02:15:38.627Z,100344.50
2023-09-11T02:18:05.812Z,100347.72
2023-09-11T02:20:32.829Z,100342.13
2023-09-11T02:23:03.036Z,100344.91
2023-09-11T02:25:30.555Z,100344.50
2023-09-11T02:27:57.437Z,100346.91
2023-09-11T02:30:24.693Z,100342.53
2023-09-11T02:32:54.231Z,100343.72
2023-09-11T02:35:21.280Z,100339.75
2023-09-11T02:37:48.142Z,100334.13
2023-09-11T02:40:15.141Z,100333.34
2023-09-11T02:42:42.064Z,100328.16
2023-09-11T02:45:09.378Z,100322.97
2023-09-11T02:47:36.318Z,100322.97
2023-09-11T02:50:04.721Z,100328.16
2023-09-11T02:52:31.893Z,100319.75
2023-09-11T02:54:59.175Z,100313.75
2023-09-11T02:57:29.140Z,100320.16
2023-09-11T02:59:56.763Z,100322.97
2023-09-11T03:02:24.283Z,100320.97
2023-09-11T03:04:58.406Z,100332.59
2023-09-11T03:07:25.628Z,100321.38
2023-09-11T03:09:52.697Z,100322.97
2023-09-11T03:12:19.629Z,100326.56
2023-09-11T03:14:46.625Z,100327.38
2023-09-11T03:17:15.354Z,100323.78
2023-09-11T03:19:45.708Z,100326.19
2023-09-11T03:22:12.714Z,100322.59
2023-09-11T03:24:42.240Z,100321.00
2023-09-11T03:27:09.669Z,100323.41
2023-09-11T03:29:36.583Z,100316.63
2023-09-11T03:32:03.520Z,100318.63
2023-09-11T03:34:31.758Z,100316.19
2023-09-11T03:36:58.764Z,100318.63
2023-09-11T03:39:25.642Z,100311.41
2023-09-11T03:41:52.760Z,100315.81
2023-09-11T03:44:19.823Z,100316.19
2023-09-11T03:46:47.153Z,100315.00
2023-09-11T03:49:14.577Z,100310.59
2023-09-11T03:51:42.734Z,100320.59
2023-09-11T03:54:12.400Z,100310.22
2023-09-11T03:56:39.448Z,100319.41
2023-09-11T03:59:06.400Z,100323.03
2023-09-11T04:01:33.327Z,100322.22
2023-09-11T04:04:00.505Z,100324.22
2023-09-11T04:06:28.151Z,100318.22
2023-09-11T04:08:55.396Z,100323.44
2023-09-11T04:11:24.182Z,100321.81
2023-09-11T04:13:52.924Z,100333.41
2023-09-11T04:16:20.848Z,100323.81
2023-09-11T04:18:48.043Z,100326.22
2023-09-11T04:21:15.095Z,100327.41
2023-09-11T04:23:42.048Z,100325.81
2023-09-11T04:26:10.088Z,100328.63
2023-09-11T04:28:37.450Z,100326.22
2023-09-11T04:31:04.781Z,100327.41
2023-09-11T04:33:32.425Z,100317.44
2023-09-11T04:36:00.589Z,100321.44
2023-09-11T04:38:28.037Z,100322.25
2023-09-11T04:40:58.374Z,100320.63
2023-09-11T04:43:26.435Z,100326.22
2023-09-11T04:45:53.370Z,100325.84
2023-09-11T04:48:20.403Z,100332.22
2023-09-11T04:50:47.922Z,100337.03
2023-09-11T04:53:14.870Z,100328.22
2023-09-11T04:55:42.736Z,100333.44
2023-09-11T04:58:09.697Z,100327.03
2023-09-11T05:00:37.030Z,100336.59
2023-09-11T05:03:04.263Z,100327.81
2023-09-11T05:05:32.266Z,100328.22
2023-09-11T05:07:59.415Z,100324.63
2023-09-11T05:10:27.107Z,100328.63
2023-09-11T05:12:53.962Z,100321.44
2023-09-11T05:15:22.163Z,100331.84
2023-09-11T05:17:49.197Z,100334.63
2023-09-11T05:20:16.284Z,100339.44
2023-09-11T05:22:46.021Z,100339.81
2023-09-11T05:25:13.456Z,100347.81
2023-09-11T05:27:42.003Z,100345.41
2023-09-11T05:30:09.344Z,100352.19
2023-09-11T05:32:36.632Z,100347.41
2023-09-11T05:35:06.618Z,100345.41
2023-09-11T05:37:33.786Z,100354.63
2023-09-11T05:40:02.040Z,100351.41
2023-09-11T05:42:30.736Z,100355.00
2023-09-11T05:45:01.572Z,100363.41
2023-09-11T05:47:28.735Z,100358.19
2023-09-11T05:50:00.872Z,100359.41
2023-09-11T05:52:28.688Z,100366.19
2023-09-11T05:54:56.846Z,100369.81
2023-09-11T05:57:23.814Z,100365.00
2023-09-11T05:59:50.781Z,100379.00
2023-09-11T06:02:17.647Z,100383.75
2023-09-11T06:04:44.566Z,100381.38
2023-09-11T06:07:13.930Z,100379.75
2023-09-11T06:09:41.050Z,100382.97
2023-09-11T06:12:08.525Z,100380.56
2023-09-11T06:14:39.346Z,100384.94
2023-09-11T06:17:06.580Z,100389.34
2023-09-11T06:19:33.493Z,100392.56
2023-09-11T06:22:04.141Z,100390.91
2023-09-11T06:24:31.084Z,100395.75
2023-09-11T06:27:07.863Z,100400.13
2023-09-11T06:29:35.253Z,100401.31
2023-09-11T06:32:02.245Z,100402.13
2023-09-11T06:34:31.108Z,100400.94
2023-09-11T06:36:59.964Z,100405.34
2023-09-11T06:39:27.418Z,100406.13
2023-09-11T06:41:57.299Z,100409.34
2023-09-11T06:44:26.372Z,100408.53
2023-09-11T06:46:53.317Z,100414.13
2023-09-11T06:49:21.752Z,100408.53
2023-09-11T06:51:48.654Z,100425.72
2023-09-11T06:54:18.463Z,100433.31
2023-09-11T06:56:48.463Z,100427.72
2023-09-11T06:59:16.414Z,100424.91
2023-09-11T07:01:43.244Z,100426.94
2023-09-11T07:04:13.239Z,100423.72
2023-09-11T07:06:42.057Z,100414.94
2023-09-11T07:09:09.414Z,100430.13
2023-09-11T07:11:36.807Z,100428.50
2023-09-11T07:14:06.801Z,100434.09
2023-09-11T07:16:34.004Z,100422.50
2023-09-11T07:19:01.099Z,100436.91
2023-09-11T07:21:29.060Z,100436.91
2023-09-11T07:23:56.408Z,100434.91
2023-09-11T07:26:23.395Z,100436.50
2023-09-11T07:29:04.098Z,100438.91
2023-09-11T07:31:33.688Z,100446.09
2023-09-11T07:34:01.084Z,100445.28
2023-09-11T07:36:29.763Z,100441.31
2023-09-11T07:38:57.110Z,100449.69
2023-09-11T07:41:24.623Z,100446.91
2023-09-11T07:43:52.097Z,100446.50
2023-09-11T07:46:21.545Z,100449.28
2023-09-11T07:48:49.911Z,100445.28
2023-09-11T07:51:16.979Z,100450.09
2023-09-11T07:53:44.699Z,100450.09
2023-09-11T07:56:12.280Z,100450.88
2023-09-11T07:58:41.449Z,100456.47
2023-09-11T08:01:08.954Z,100455.28
2023-09-11T08:03:36.714Z,100454.47
2023-09-11T08:06:07.096Z,100458.88
2023-09-11T08:08:34.371Z,100456.50
2023-09-11T08:11:18.067Z,100455.28
2023-09-11T08:13:47.712Z,100449.34
2023-09-11T08:16:16.152Z,100451.75
2023-09-11T08:18:45.314Z,100443.34
2023-09-11T08:21:14.246Z,100444.53
2023-09-11T08:23:45.240Z,100450.94
2023-09-11T08:26:12.884Z,100450.94
2023-09-11T08:28:40.242Z,100453.38
2023-09-11T08:31:09.799Z,100462.97
2023-09-11T08:33:52.692Z,100452.53
2023-09-11T08:36:23.642Z,100466.16
2023-09-11T08:38:50.774Z,100464.16
2023-09-11T08:41:19.397Z,100457.34
2023-09-11T08:43:48.034Z,100465.75
2023-09-11T08:46:20.260Z,100467.75
2023-09-11T08:48:50.959Z,100466.16
2023-09-11T08:51:24.648Z,100462.13
2023-09-11T08:53:53.870Z,100464.16
2023-09-11T08:56:21.378Z,100462.16
2023-09-11T08:58:53.013Z,100462.13
2023-09-11T09:01:24.433Z,100462.13
2023-09-11T09:03:59.060Z,100465.72
2023-09-11T09:06:27.301Z,100475.75
2023-09-11T09:08:55.189Z,100458.94
2023-09-11T09:11:25.569Z,100458.94
2023-09-11T09:13:53.113Z,100469.34
2023-09-11T09:16:21.873Z,100471.34
2023-09-11T09:18:52.682Z,100470.94
2023-09-11T09:21:21.689Z,100470.94
2023-09-11T09:23:48.790Z,100466.16
2023-09-11T09:26:17.250Z,100480.53
2023-09-11T09:28:49.000Z,100468.94
2023-09-11T09:31:24.416Z,100464.56
2023-09-11T09:33:57.600Z,100469.81
2023-09-11T09:36:24.995Z,100473.78
2023-09-11T09:39:03.823Z,100481.00
2023-09-11T09:41:30.914Z,100485.38
2023-09-11T09:43:58.145Z,100472.97
2023-09-11T09:46:26.841Z,100479.75
2023-09-11T09:48:54.698Z,100477.75
2023-09-11T09:51:23.018Z,100479.75
2023-09-11T09:53:55.016Z,100478.56
2023-09-11T09:56:23.565Z,100480.56
2023-09-11T09:58:52.039Z,100484.19
2023-09-11T10:01:21.969Z,100485.38
2023-09-11T10:03:55.544Z,100482.53
2023-09-11T10:06:32.837Z,100481.34
2023-09-11T10:09:09.061Z,100484.50
2023-09-11T10:11:37.849Z,100478.09
2023-09-11T10:14:10.842Z,100473.69
2023-09-11T10:16:39.678Z,100482.50
2023-09-11T10:19:06.715Z,100488.91
2023-09-11T10:21:34.630Z,100480.91
2023-09-11T10:24:03.644Z,100480.53
2023-09-11T10:26:47.932Z,100482.94
2023-09-11T10:29:23.099Z,100476.94
2023-09-11T10:32:36.318Z,100479.34
2023-09-11T10:35:06.698Z,100477.34
2023-09-11T10:37:40.058Z,100479.75
2023-09-11T10:40:08.600Z,100481.75
2023-09-11T10:42:36.182Z,100476.53
2023-09-11T10:45:05.068Z,100484.94
2023-09-11T10:47:31.979Z,100489.75
2023-09-11T10:49:59.144Z,100486.94
2023-09-11T10:52:28.001Z,100484.16
2023-09-11T10:54:55.070Z,100481.34
2023-09-11T10:57:22.170Z,100486.13
2023-09-11T10:59:50.818Z,100472.91
2023-09-11T11:02:22.998Z,100474.13
2023-09-11T11:04:50.031Z,100470.53
2023-09-11T11:07:17.097Z,100468.53
2023-09-11T11:09:51.838Z,100473.34
2023-09-11T11:12:35.833Z,100482.16
2023-09-11T11:15:25.916Z,100480.56
2023-09-11T11:18:15.844Z,100487.78
2023-09-11T11:21:15.931Z,100483.78
2023-09-11T11:23:57.659Z,100481.38
2023-09-11T11:26:28.624Z,100486.97
2023-09-11T11:28:58.002Z,100489.78
2023-09-11T11:31:25.897Z,100498.19
2023-09-11T11:33:53.834Z,100488.97
2023-09-11T11:36:21.647Z,100486.59
2023-09-11T11:38:48.684Z,100494.56
2023-09-11T11:41:16.651Z,100486.19
2023-09-11T11:43:44.301Z,100489.38
2023-09-11T11:46:13.233Z,100497.38
2023-09-11T11:48:42.882Z,100502.19
2023-09-11T11:51:10.724Z,100496.59
2023-09-11T11:53:40.811Z,100490.16
2023-09-11T11:56:08.864Z,100498.97
2023-09-11T11:58:36.216Z,100506.97
2023-09-11T12:01:08.252Z,100495.78
2023-09-11T12:03:48.954Z,100497.78
2023-09-11T12:06:17.225Z,100498.19
2023-09-11T12:08:46.414Z,100508.22
2023-09-11T12:11:13.450Z,100495.00
2023-09-11T12:13:50.023Z,100498.97
2023-09-11T12:16:20.260Z,100495.78
2023-09-11T12:18:48.724Z,100493.81
2023-09-11T12:21:16.005Z,100490.59
2023-09-11T12:23:43.049Z,100493.78
2023-09-11T12:26:10.262Z,100491.78
2023-09-11T12:28:37.429Z,100489.00
2023-09-11T12:31:04.560Z,100499.38
2023-09-11T12:33:36.589Z,100495.78
2023-09-11T12:36:05.876Z,100497.34
2023-09-11T12:38:32.955Z,100497.34
2023-09-11T12:40:59.860Z,100497.31
2023-09-11T12:43:27.676Z,100494.88
2023-09-11T12:45:54.949Z,100509.25
2023-09-11T12:48:22.989Z,100508.03
2023-09-11T12:50:50.591Z,100508.41
2023-09-11T12:53:17.638Z,100504.38
2023-09-11T12:55:44.577Z,100511.16
2023-09-11T12:58:11.642Z,100508.34
2023-09-11T13:00:44.622Z,100512.34
2023-09-11T13:03:12.537Z,100514.72
2023-09-11T13:05:40.153Z,100517.84
2023-09-11T13:08:09.516Z,100526.19
2023-09-11T13:10:37.093Z,100520.94
2023-09-11T13:13:07.289Z,100520.53
2023-09-11T13:15:35.372Z,100522.53
2023-09-11T13:18:02.497Z,100515.81
2023-09-11T13:20:30.516Z,100528.16
2023-09-11T13:22:57.364Z,100519.75
2023-09-11T13:25:24.881Z,100518.94
2023-09-11T13:27:51.992Z,100523.31
2023-09-11T13:30:22.803Z,100518.56
2023-09-11T13:32:50.821Z,100528.91
2023-09-11T13:35:17.896Z,100520.50
2023-09-11T13:37:44.848Z,100528.84
2023-09-11T13:40:13.121Z,100525.72
2023-09-11T13:42:40.197Z,100515.31
2023-09-11T13:45:10.385Z,100527.75
2023-09-11T13:47:37.416Z,100517.38
2023-09-11T13:50:08.248Z,100529.81
2023-09-11T13:52:35.182Z,100517.44
2023-09-11T13:55:02.606Z,100518.22
2023-09-11T13:57:31.443Z,100522.56
2023-09-11T13:59:58.447Z,100519.78
2023-09-11T14:02:28.073Z,100512.22
2023-09-11T14:04:56.566Z,100514.66
2023-09-11T14:07:23.578Z,100511.44
2023-09-11T14:09:50.610Z,100509.88
2023-09-11T14:12:17.518Z,100523.84
2023-09-11T14:14:44.447Z,100517.03
2023-09-11T14:17:11.451Z,100518.59
2023-09-11T14:19:38.466Z,100514.16
2023-09-11T14:22:05.619Z,100508.50
2023-09-11T14:24:34.338Z,100508.09
2023-09-11T14:27:01.898Z,100512.84
2023-09-11T14:29:29.444Z,100507.25
2023-09-11T14:31:56.496Z,100508.88
2023-09-11T14:34:23.445Z,100507.72
2023-09-11T14:36:55.029Z,100508.91
2023-09-11T14:39:28.194Z,100507.34
2023-09-11T14:41:56.431Z,100500.97
2023-09-11T14:44:24.497Z,100504.22
2023-09-11T14:46:51.401Z,100502.63
2023-09-11T14:49:18.338Z,100509.88
2023-09-11T14:51:46.907Z,100507.47
2023-09-11T14:54:14.147Z,100500.28
2023-09-11T14:56:42.347Z,100497.09
2023-09-11T14:59:09.572Z,100502.69
2023-09-11T15:01:36.819Z,100492.31
2023-09-11T15:04:05.151Z,100500.31
2023-09-11T15:06:32.413Z,100501.13
2023-09-11T15:09:01.816Z,100501.16
2023-09-11T15:11:28.854Z,100500.38
2023-09-11T15:13:56.041Z,100496.00
2023-09-11T15:16:24.132Z,100506.00
2023-09-11T15:18:53.665Z,100506.00
2023-09-11T15:21:21.101Z,100496.38
2023-09-11T15:23:48.112Z,100505.53
2023-09-11T15:26:17.845Z,100505.53
2023-09-11T15:28:44.743Z,100495.16
2023-09-11T15:31:11.874Z,100499.94
2023-09-11T15:33:38.805Z,100493.94
2023-09-11T15:36:08.160Z,100495.53
2023-09-11T15:38:39.191Z,100497.97
2023-09-11T15:41:09.025Z,100496.38
2023-09-11T15:43:39.381Z,100495.56
2023-09-11T15:46:09.115Z,100502.38
2023-09-11T15:48:37.697Z,100500.38
2023-09-11T15:51:06.733Z,100499.59
2023-09-11T15:53:35.917Z,100495.25
2023-09-11T15:56:03.424Z,100498.03
2023-09-11T15:58:30.848Z,100494.44
2023-09-11T16:00:58.011Z,100493.25
2023-09-11T16:03:29.377Z,100494.84
2023-09-11T16:05:57.452Z,100499.25
2023-09-11T16:08:24.422Z,100507.19
2023-09-11T16:10:51.517Z,100501.59
2023-09-11T16:13:18.450Z,100504.41
2023-09-11T16:15:45.447Z,100510.00
2023-09-11T16:18:12.879Z,100507.59
2023-09-11T16:20:43.130Z,100503.19
2023-09-11T16:23:10.674Z,100500.41
2023-09-11T16:25:40.058Z,100506.75
2023-09-11T16:28:07.725Z,100510.75
2023-09-11T16:30:35.135Z,100505.13
2023-09-11T16:33:04.248Z,100505.13
2023-09-11T16:35:34.587Z,100509.91
2023-09-11T16:38:01.794Z,100497.53
2023-09-11T16:40:28.702Z,100500.31
2023-09-11T16:42:55.735Z,100507.91
2023-09-11T16:45:22.703Z,100503.91
2023-09-11T16:47:49.914Z,100513.47
2023-09-11T16:50:19.626Z,100500.28
2023-09-11T16:52:47.904Z,100510.66
2023-09-11T16:55:15.265Z,100504.66
2023-09-11T16:57:42.848Z,100511.44
2023-09-11T17:00:10.694Z,100511.84
2023-09-11T17:02:41.382Z,100517.78
2023-09-11T17:05:11.749Z,100519.00
2023-09-11T17:07:38.725Z,100508.22
2023-09-11T17:10:08.354Z,100524.22
2023-09-11T17:12:35.741Z,100517.00
2023-09-11T17:15:05.547Z,100518.19
2023-09-11T17:17:33.751Z,100516.59
2023-09-11T17:20:00.781Z,100521.81
2023-09-11T17:22:30.140Z,100518.59
2023-09-11T17:24:57.524Z,100521.03
2023-09-11T17:27:28.793Z,100527.00
2023-09-11T17:30:00.230Z,100521.41
2023-09-11T17:32:27.179Z,100515.84
2023-09-11T17:34:54.126Z,100519.41
2023-09-11T17:37:21.685Z,100523.00
2023-09-11T17:39:50.460Z,100516.22
2023-09-11T17:42:17.426Z,100524.59
2023-09-11T17:44:45.488Z,100535.34
2023-09-11T17:47:15.119Z,100526.94
2023-09-11T17:49:44.694Z,100526.50
2023-09-11T17:52:12.869Z,100537.66
2023-09-11T17:54:39.919Z,100526.88
2023-09-11T17:57:08.500Z,100532.81
2023-09-11T17:59:35.874Z,100532.00
2023-09-11T18:02:04.336Z,100534.41
2023-09-11T18:04:34.530Z,100527.22
2023-09-11T18:07:01.593Z,100538.41
2023-09-11T18:09:28.901Z,100536.00
2023-09-11T18:11:56.492Z,100538.03
2023-09-11T18:14:26.021Z,100537.19
2023-09-11T18:16:54.301Z,100543.16
2023-09-11T18:19:21.968Z,100544.31
2023-09-11T18:21:49.626Z,100551.50
2023-09-11T18:26:59.800Z,100548.63
2023-09-11T18:29:28.376Z,100544.59
2023-09-11T18:31:56.885Z,100554.16
2023-09-11T18:34:27.408Z,100545.78
2023-09-11T18:36:57.920Z,100555.75
2023-09-11T18:39:28.357Z,100546.91
2023-09-11T18:41:58.880Z,100550.09
2023-09-11T18:44:27.985Z,100552.91
2023-09-11T18:46:55.637Z,100559.69
2023-09-11T18:49:24.962Z,100549.34
2023-09-11T18:51:55.213Z,100562.91
2023-09-11T18:54:26.974Z,100554.94
2023-09-11T18:56:59.477Z,100557.31
2023-09-11T18:59:29.462Z,100555.69
2023-09-11T19:02:05.072Z,100561.69
2023-09-11T19:04:34.361Z,100569.66
2023-09-11T19:07:02.435Z,100570.84
2023-09-11T19:09:29.532Z,100574.81
2023-09-11T19:11:56.595Z,100578.81
2023-09-11T19:14:23.567Z,100576.00
2023-09-11T19:16:50.449Z,100585.19
2023-09-11T19:19:17.642Z,100581.97
2023-09-11T19:21:47.074Z,100592.38
2023-09-11T19:24:15.082Z,100586.78
2023-09-11T19:26:42.416Z,100595.56
2023-09-11T19:29:09.341Z,100593.97
2023-09-11T19:31:36.404Z,100591.19
2023-09-11T19:34:04.399Z,100594.34
2023-09-11T19:36:32.840Z,100601.13
2023-09-11T19:39:02.407Z,100592.38
2023-09-11T19:41:30.220Z,100603.94
2023-09-11T19:44:53.630Z,100612.75
2023-09-11T19:47:21.988Z,100606.72
2023-09-11T19:49:49.212Z,100603.53
2023-09-11T19:52:16.048Z,100609.50
2023-09-11T19:54:44.093Z,100607.13
2023-09-11T19:57:10.953Z,100603.53
2023-09-11T19:59:37.861Z,100621.06
2023-09-11T20:02:04.710Z,100619.47
2023-09-11T20:04:31.480Z,100623.84
2023-09-11T20:06:58.196Z,100623.06
2023-09-11T20:09:24.924Z,100629.44
2023-09-11T20:11:51.701Z,100628.25
2023-09-11T20:14:18.478Z,100628.25
2023-09-11T20:16:45.231Z,100622.66
2023-09-11T20:19:11.977Z,100627.06
2023-09-11T20:21:39.001Z,100629.88
2023-09-11T20:24:06.204Z,100632.25
2023-09-11T20:26:32.957Z,100630.66
2023-09-11T20:28:59.597Z,100635.44
2023-09-11T20:31:26.509Z,100631.84
2023-09-11T20:33:53.332Z,100640.22
2023-09-11T20:36:21.162Z,100633.84
2023-09-11T20:38:50.686Z,100639.03
2023-09-11T20:41:18.821Z,100635.44
2023-09-11T20:43:47.398Z,100634.66
2023-09-11T20:46:14.364Z,100631.84
2023-09-11T20:48:42.183Z,100638.25
2023-09-11T20:51:11.442Z,100654.19
2023-09-11T20:53:39.289Z,100657.34
2023-09-11T20:56:07.516Z,100652.16
2023-09-11T20:58:34.987Z,100651.34
2023-09-11T21:01:06.344Z,100646.53
2023-09-11T21:03:33.876Z,100654.91
2023-09-11T21:06:01.219Z,100654.91
2023-09-11T21:08:28.396Z,100654.50
2023-09-11T21:10:55.325Z,100668.03
2023-09-11T21:13:23.814Z,100661.66
2023-09-11T21:15:51.090Z,100660.84
2023-09-11T21:18:18.345Z,100655.66
2023-09-11T21:20:45.296Z,100658.81
2023-09-11T21:23:12.026Z,100650.03
2023-09-11T21:25:39.046Z,100648.84
2023-09-11T21:28:06.939Z,100655.25
2023-09-11T21:30:35.029Z,100654.44
2023-09-11T21:33:01.929Z,100657.22
2023-09-11T21:35:28.881Z,100657.22
2023-09-11T21:37:55.849Z,100648.84
2023-09-11T21:40:22.598Z,100652.81
2023-09-11T21:42:49.306Z,100651.19
2023-09-11T21:45:16.536Z,100645.59
2023-09-11T21:47:43.345Z,100653.97
2023-09-11T21:50:10.278Z,100663.09
2023-09-11T21:52:37.036Z,100663.50
2023-09-11T21:55:04.508Z,100671.06
2023-09-11T21:57:31.414Z,100677.81
2023-09-11T21:59:59.826Z,100682.97
2023-09-11T22:02:27.047Z,100683.78
2023-09-11T22:04:53.775Z,100686.59
2023-09-11T22:07:20.562Z,100687.75
2023-09-11T22:09:47.306Z,100697.31
2023-09-11T22:12:14.102Z,100691.72
2023-09-11T22:14:40.893Z,100690.13
2023-09-11T22:17:08.756Z,100677.34
2023-09-11T22:19:37.168Z,100686.53
2023-09-11T22:22:04.020Z,100689.31
2023-09-11T22:24:30.774Z,100704.41
2023-09-11T22:27:00.910Z,100695.59
2023-09-11T22:29:33.546Z,100702.72
2023-09-11T22:32:01.000Z,100708.16
2023-09-11T22:34:28.044Z,100708.06
2023-09-11T22:36:55.209Z,100707.19
2023-09-11T22:39:21.947Z,100717.44
2023-09-11T22:41:49.164Z,100708.97
2023-09-11T22:44:15.992Z,100701.31
2023-09-11T22:46:42.743Z,100702.44
2023-09-11T22:49:09.772Z,100698.78
2023-09-11T22:51:38.406Z,100715.41
2023-09-11T22:54:05.276Z,100718.94
2023-09-11T22:56:31.917Z,100715.34
2023-09-11T22:59:01.284Z,100717.72
2023-09-11T23:01:28.612Z,100716.91
2023-09-11T23:03:56.065Z,100731.22
2023-09-11T23:06:22.990Z,100731.22
2023-09-11T23:08:49.716Z,100727.25
2023-09-11T23:11:16.445Z,100727.22
2023-09-11T23:13:43.140Z,100716.06
2023-09-11T23:16:10.387Z,100727.97
2023-09-11T23:18:37.281Z,100721.97
2023-09-11T23:21:04.247Z,100724.28
2023-09-11T23:23:40.632Z,100732.66
2023-09-11T23:26:07.980Z,100739.84
2023-09-11T23:28:35.081Z,100725.91
2023-09-11T23:31:02.550Z,100742.63
2023-09-11T23:33:29.336Z,100742.22
2023-09-11T23:35:59.321Z,100735.03
2023-09-11T23:38:28.143Z,100740.97
2023-09-11T23:40:54.849Z,100741.28
2023-09-11T23:43:21.572Z,100756.00
2023-09-11T23:45:49.215Z,100753.59
2023-09-11T23:48:15.959Z,100754.72
2023-09-11T23:50:44.164Z,100743.50
2023-09-11T23:53:12.933Z,100739.09
2023-09-11T23:55:40.405Z,100745.06
2023-09-11T23:58:07.089Z,100753.75
